Terminal Aerodrome Forecast
Issued by NWS

Home | Current Version | Previous Version | Text Only | Print | Product List | Glossary On
Versions: 1 2 3 4 5 6 7 8 9 10 11 12 13 14 15 16 17 18 19 20 21 22 23 24 25 26 27 28 29 30 31 32 33 34 35 36
000
FTUS45 KBOU 310530
TAFBJC
TAF
KBJC 310530Z 3106/0106 33008KT P6SM FEW120 SCT220
     FM311400 VRB05KT P6SM SCT100
     FM311800 12008KT P6SM SCT080 SCT120
     FM312100 14008KT P6SM SCT080 BKN120
     FM010300 24007KT P6SM FEW090 SCT120=

USA.gov is the U.S. government's official web portal to all federal, state and local government web resources and services.